Time;durP1;ratioP1;P1;durP2;ratioP2;P2;SDS_P1;SDS_P2;PMS_P1;PMS_P2;Temp;Humidity;BMP_temperature;BMP_pressure;BME280_temperature;BME280_humidity;BME280_pressure;Samples;Min_cycle;Max_cycle;Signal;HPM_P1;HPM_P2
2021/09/30 00:00:16;;;;;;;12.03;7.08;;;;;;;9.81;75.18;99983.77;1756514;81;21064;-65
2021/09/30 00:02:45;;;;;;;16.32;7.40;;;;;;;9.84;75.25;99988.86;1757548;81;21528;-65
2021/09/30 00:05:12;;;;;;;14.00;6.87;;;;;;;9.85;75.21;99980.12;1762724;81;21157;-65
2021/09/30 00:07:40;;;;;;;12.28;6.92;;;;;;;9.87;75.31;99983.52;1762995;80;22234;-65
2021/09/30 00:10:11;;;;;;;16.80;7.25;;;;;;;9.87;75.32;99983.52;1768435;81;21548;-65
2021/09/30 00:12:46;;;;;;;14.80;6.72;;;;;;;9.88;75.33;99977.38;1764208;81;20992;-66
2021/09/30 00:15:14;;;;;;;13.80;7.42;;;;;;;9.91;75.43;99981.17;1755207;81;21053;-66
2021/09/30 00:18:07;;;;;;;14.73;7.22;;;;;;;9.92;75.45;99981.58;1763566;81;20992;-65
2021/09/30 00:41:58;;;;;;;12.03;6.65;;;;;;;10.17;75.91;99988.41;1769825;81;21014;-66
2021/09/30 01:24:36;;;;;;;13.70;8.35;;;;;;;10.22;76.80;99995.14;1764964;81;21052;-66
2021/09/30 01:46:23;;;;;;;19.17;9.23;;;;;;;10.01;77.65;100015.11;1649934;85;21045;-65
2021/09/30 02:19:39;;;;;;;13.75;10.90;;;;;;;9.81;78.98;100025.50;1736615;81;21521;-66
2021/09/30 02:25:15;;;;;;;17.52;12.82;;;;;;;9.85;79.13;100016.63;1745902;81;21516;-66
2021/09/30 03:00:16;;;;;;;17.57;13.93;;;;;;;9.95;80.36;100057.09;1737518;81;21052;-65
2021/09/30 03:02:48;;;;;;;18.10;14.30;;;;;;;9.97;80.45;100057.89;1759937;80;21007;-66
2021/09/30 03:05:16;;;;;;;18.67;14.95;;;;;;;9.99;80.48;100049.99;1752525;80;21918;-66
2021/09/30 03:07:43;;;;;;;22.42;14.98;;;;;;;10.01;80.57;100046.41;1727061;80;28753;-66
2021/09/30 03:10:12;;;;;;;21.42;14.63;;;;;;;10.02;80.65;100038.97;1780904;80;21579;-66
2021/09/30 03:12:41;;;;;;;20.30;14.63;;;;;;;10.04;80.71;100035.86;1771709;80;21116;-66
2021/09/30 03:17:48;;;;;;;19.87;16.75;;;;;;;10.06;80.81;100040.56;1773984;79;22246;-66
2021/09/30 03:20:31;;;;;;;16.80;14.45;;;;;;;10.08;80.91;100050.49;1774262;79;20992;-66
2021/09/30 03:23:02;;;;;;;20.75;15.72;;;;;;;10.13;80.98;100046.83;1781066;79;20931;-66
2021/09/30 03:25:30;;;;;;;19.67;14.60;;;;;;;10.15;81.04;100039.80;1771399;80;20997;-66
2021/09/30 03:27:56;;;;;;;;;;;;;;;10.19;81.12;100030.92;1779897;79;20934;-66
2021/09/30 03:30:27;;;;;;;18.82;15.80;;;;;;;10.20;81.30;100032.19;1760483;80;22326;-66
2021/09/30 03:32:56;;;;;;;23.38;16.50;;;;;;;10.19;81.25;100036.14;1788419;79;21017;-66
2021/09/30 03:35:24;;;;;;;22.40;16.62;;;;;;;10.20;81.32;100040.47;1762211;79;20985;-65
2021/09/30 03:37:51;;;;;;;21.75;16.23;;;;;;;10.21;81.39;100042.16;1765480;80;21029;-66
2021/09/30 03:40:18;;;;;;;21.95;16.75;;;;;;;10.22;81.47;100046.45;1775364;80;20938;-66
2021/09/30 03:42:44;;;;;;;22.57;16.93;;;;;;;10.22;81.53;100038.62;1775970;79;21499;-66
2021/09/30 03:45:11;;;;;;;23.37;17.43;;;;;;;10.24;81.60;100045.48;1774565;80;20943;-66
2021/09/30 03:47:38;;;;;;;25.33;17.40;;;;;;;10.25;81.67;100040.67;1775263;80;20982;-66
2021/09/30 03:50:09;;;;;;;19.92;15.85;;;;;;;10.28;81.74;100041.05;1764811;80;20923;-66
2021/09/30 03:52:53;;;;;;;23.27;17.60;;;;;;;10.28;81.76;100040.58;1763868;80;21026;-66
2021/09/30 04:00:23;;;;;;;23.90;19.20;;;;;;;10.36;81.97;100048.08;1768745;79;21029;-66
2021/09/30 04:02:50;;;;;;;25.77;17.87;;;;;;;10.38;82.06;100055.39;1778839;79;20977;-65
2021/09/30 04:05:17;;;;;;;27.93;19.23;;;;;;;10.40;82.06;100053.58;1783148;80;21476;-66
2021/09/30 04:07:44;;;;;;;23.95;18.73;;;;;;;10.41;82.10;100052.66;1786062;80;21662;-66
2021/09/30 04:10:11;;;;;;;28.45;18.87;;;;;;;10.42;82.16;100049.58;1782547;79;21575;-66
2021/09/30 04:12:37;;;;;;;25.88;20.12;;;;;;;10.44;82.34;100044.69;1778388;79;20970;-66
2021/09/30 04:15:05;;;;;;;23.33;18.37;;;;;;;10.44;82.32;100051.22;1779725;80;21568;-66
2021/09/30 04:17:32;;;;;;;22.32;18.12;;;;;;;10.47;82.44;100055.04;1782540;80;21485;-67
2021/09/30 04:19:58;;;;;;;28.70;20.80;;;;;;;10.48;82.44;100055.88;1785610;79;21593;-64
2021/09/30 04:22:25;;;;;;;27.90;20.60;;;;;;;10.47;82.46;100055.04;1780804;80;20978;-65
2021/09/30 04:24:52;;;;;;;26.57;19.70;;;;;;;10.47;82.51;100055.04;1774031;79;21436;-65
2021/09/30 04:39:15;;;;;;;24.95;18.62;;;;;;;10.51;83.04;100044.84;1812761;77;22771;-65
2021/09/30 04:41:43;;;;;;;24.20;19.05;;;;;;;10.48;83.03;100054.11;1788146;78;21646;-64
2021/09/30 04:44:11;;;;;;;25.23;19.32;;;;;;;10.49;83.00;100055.80;1798248;78;22198;-64
2021/09/30 04:46:37;;;;;;;24.05;18.15;;;;;;;10.51;83.08;100065.73;1779276;78;21163;-64
2021/09/30 04:49:04;;;;;;;24.53;18.90;;;;;;;10.53;83.11;100073.05;1781784;79;21273;-64
2021/09/30 04:51:31;;;;;;;28.77;20.13;;;;;;;10.55;83.15;100066.91;1791772;78;21203;-64
2021/09/30 04:53:58;;;;;;;27.10;20.17;;;;;;;10.55;83.15;100066.91;1781956;79;21896;-64
2021/09/30 04:56:24;;;;;;;25.37;20.20;;;;;;;10.58;83.27;100078.53;1783641;78;21765;-64
2021/09/30 04:58:51;;;;;;;28.62;20.30;;;;;;;10.63;83.34;100083.11;1788945;78;20993;-64
2021/09/30 05:01:17;;;;;;;27.52;19.52;;;;;;;10.66;83.41;100080.36;1778921;79;21036;-64
2021/09/30 05:03:44;;;;;;;24.07;20.00;;;;;;;10.68;83.39;100087.69;1786559;78;21314;-64
2021/09/30 05:06:11;;;;;;;24.80;20.03;;;;;;;10.69;83.39;100084.15;1798864;78;22403;-64
2021/09/30 05:08:39;;;;;;;28.52;19.42;;;;;;;10.72;83.49;100077.48;1794946;78;21068;-64
2021/09/30 05:11:06;;;;;;;26.27;18.77;;;;;;;10.74;83.51;100091.34;1785585;79;21484;-64
2021/09/30 05:13:40;;;;;;;25.00;20.48;;;;;;;10.75;83.53;100090.41;1761782;78;21053;-64
2021/09/30 05:16:13;;;;;;;25.85;19.30;;;;;;;10.75;83.54;100089.11;1770232;78;21112;-64
2021/09/30 05:18:46;;;;;;;25.80;19.02;;;;;;;10.76;83.57;100097.36;1783830;79;21989;-63
2021/09/30 05:21:09;;;;;;;24.70;20.12;;;;;;;10.76;83.63;100102.58;1785818;79;21452;-64
2021/09/30 05:23:36;;;;;;;24.27;19.53;;;;;;;10.77;83.62;100101.66;1767595;79;21443;-64
2021/09/30 05:26:03;;;;;;;24.57;19.62;;;;;;;10.78;83.69;100097.27;1791261;78;21466;-63
2021/09/30 05:28:29;;;;;;;24.82;20.02;;;;;;;10.78;83.73;100101.19;1785688;78;21508;-64
2021/09/30 05:30:56;;;;;;;28.40;19.82;;;;;;;10.78;83.71;100112.48;1790720;78;21640;-64
2021/09/30 05:33:24;;;;;;;30.55;21.23;;;;;;;10.78;83.71;100112.48;1766675;79;21502;-64
2021/09/30 05:35:51;;;;;;;26.85;20.05;;;;;;;10.73;83.71;100109.24;1787000;78;21073;-64
2021/09/30 05:38:17;;;;;;;25.85;19.20;;;;;;;10.70;83.74;100108.91;1721767;80;21099;-64
2021/09/30 05:40:48;;;;;;;26.27;19.80;;;;;;;10.69;83.75;100118.09;1723459;81;21522;-64
2021/09/30 05:43:18;;;;;;;26.48;18.80;;;;;;;10.63;83.69;100122.28;1729177;81;21089;-64
2021/09/30 05:45:42;;;;;;;27.80;19.40;;;;;;;10.57;83.72;100120.77;1726825;81;21501;-64
2021/09/30 05:48:10;;;;;;;25.88;18.23;;;;;;;10.53;83.82;100116.59;1722502;81;20985;-64
2021/09/30 05:50:37;;;;;;;27.62;19.32;;;;;;;10.49;83.80;100108.02;1731471;80;20962;-64
2021/09/30 05:53:04;;;;;;;25.17;18.50;;;;;;;10.48;83.87;100108.94;1723499;81;21014;-64
2021/09/30 05:55:31;;;;;;;22.27;16.90;;;;;;;10.49;83.89;100115.00;1722551;82;21372;-64
2021/09/30 05:57:57;;;;;;;22.15;17.60;;;;;;;10.55;83.92;100120.43;1728292;81;21301;-64
2021/09/30 06:00:31;;;;;;;22.33;17.30;;;;;;;10.77;84.49;100123.86;1733675;81;21623;-64
2021/09/30 06:16:17;;;;;;;44.63;31.25;;;;;;;13.75;82.15;100128.05;1727048;81;20962;-64
2021/09/30 06:18:42;;;;;;;23.30;17.73;;;;;;;14.15;82.40;100127.20;1725755;81;21359;-65
2021/09/30 06:21:09;;;;;;;19.80;15.20;;;;;;;14.50;82.12;100128.66;1729578;81;21303;-65
2021/09/30 06:23:36;;;;;;;24.13;14.40;;;;;;;14.96;82.20;100127.36;1722611;81;21975;-65
2021/09/30 06:26:02;;;;;;;16.83;12.97;;;;;;;14.96;82.20;100127.36;1717466;81;21642;-65
2021/09/30 06:28:29;;;;;;;19.45;13.32;;;;;;;15.31;81.80;100133.61;1734455;81;20962;-65
2021/09/30 06:30:55;;;;;;;15.55;12.35;;;;;;;15.34;80.93;100142.63;1722457;80;21031;-66
2021/09/30 06:33:24;;;;;;;19.17;11.97;;;;;;;15.39;80.62;100136.63;1736364;81;21018;-66
2021/09/30 06:35:51;;;;;;;20.35;12.47;;;;;;;15.48;80.77;100148.84;1715916;80;21819;-65
2021/09/30 06:38:19;;;;;;;14.43;10.75;;;;;;;15.49;80.48;100141.31;1728976;81;22002;-66
2021/09/30 06:40:46;;;;;;;14.03;10.45;;;;;;;15.43;79.92;100140.77;1726103;81;20924;-65
2021/09/30 06:43:13;;;;;;;13.80;10.35;;;;;;;15.13;80.00;100142.61;1729069;81;22049;-65
2021/09/30 06:45:39;;;;;;;15.83;11.15;;;;;;;14.93;80.29;100153.84;1732739;81;21308;-65
2021/09/30 06:48:06;;;;;;;11.00;9.68;;;;;;;14.74;80.49;100164.56;1735787;81;21025;-65
2021/09/30 06:50:33;;;;;;;12.30;9.28;;;;;;;14.63;80.56;100165.65;1727358;81;20985;-65
2021/09/30 06:53:01;;;;;;;11.20;9.05;;;;;;;14.55;80.43;100159.50;1733600;81;22131;-64
2021/09/30 06:55:28;;;;;;;13.15;9.33;;;;;;;14.40;80.55;100159.04;1735500;81;21540;-65
2021/09/30 06:57:55;;;;;;;11.73;8.23;;;;;;;14.34;80.41;100158.08;1736308;80;20914;-65
2021/09/30 07:00:22;;;;;;;11.15;8.10;;;;;;;14.14;80.11;100157.00;1735825;81;21043;-65
2021/09/30 07:02:48;;;;;;;10.70;7.40;;;;;;;13.91;80.12;100164.34;1734248;82;21561;-65
2021/09/30 07:05:16;;;;;;;9.50;7.45;;;;;;;13.76;80.16;100175.69;1735409;81;21361;-65
2021/09/30 07:07:42;;;;;;;;;;;;;;;13.61;80.26;100182.13;1729653;81;21059;-65
2021/09/30 07:10:11;;;;;;;8.20;6.37;;;;;;;13.48;80.10;100185.00;1723794;81;20200;-64
2021/09/30 07:12:39;;;;;;;8.33;6.20;;;;;;;13.32;80.24;100189.34;1724611;81;21503;-65
2021/09/30 07:15:07;;;;;;;7.97;5.50;;;;;;;13.31;80.55;100187.66;1730214;81;21304;-64
2021/09/30 07:17:33;;;;;;;;;;;;;;;13.30;80.31;100188.56;1709349;81;20930;-64
2021/09/30 07:20:01;;;;;;;5.33;4.70;;;;;;;13.32;80.31;100186.71;1729989;82;20902;-64
2021/09/30 07:22:27;;;;;;;5.10;3.72;;;;;;;13.31;80.34;100197.67;1717940;81;21324;-64
2021/09/30 07:24:54;;;;;;;5.28;4.03;;;;;;;13.29;80.08;100194.73;1722560;81;21320;-64
2021/09/30 07:27:21;;;;;;;5.45;3.58;;;;;;;13.20;80.16;100202.58;1727383;81;20976;-64
2021/09/30 07:29:47;;;;;;;5.12;3.92;;;;;;;13.27;80.22;100203.14;1717800;81;21306;-64
2021/09/30 07:32:15;;;;;;;4.83;3.85;;;;;;;13.29;80.10;100192.12;1734427;82;21988;-63
2021/09/30 07:34:41;;;;;;;4.55;3.42;;;;;;;13.28;79.93;100186.50;1730966;81;20980;-64
2021/09/30 07:37:08;;;;;;;4.35;3.70;;;;;;;13.19;79.71;100187.31;1736088;81;21612;-64
2021/09/30 07:39:35;;;;;;;4.37;3.37;;;;;;;13.09;79.65;100197.88;1714766;81;21836;-64
2021/09/30 07:42:02;;;;;;;4.33;3.80;;;;;;;13.04;79.48;100193.31;1711577;81;20977;-63
2021/09/30 07:44:32;;;;;;;;;;;;;;;13.07;79.94;100194.94;1687155;83;21351;-64
2021/09/30 07:46:57;;;;;;;5.80;3.95;;;;;;;13.25;80.37;100189.22;1706513;82;20847;-63
2021/09/30 07:49:23;;;;;;;3.83;3.40;;;;;;;13.50;80.33;100183.16;1698266;81;21495;-63
2021/09/30 07:51:50;;;;;;;5.40;3.20;;;;;;;13.50;79.66;100183.16;1704720;81;21478;-64
2021/09/30 07:54:17;;;;;;;4.58;3.10;;;;;;;13.54;79.37;100182.05;1706177;81;22247;-63
2021/09/30 07:56:44;;;;;;;5.53;2.98;;;;;;;13.48;79.24;100190.25;1709951;82;21461;-63
2021/09/30 07:59:10;;;;;;;4.90;3.20;;;;;;;13.50;79.59;100191.46;1711071;82;21056;-63
2021/09/30 08:01:37;;;;;;;4.43;3.80;;;;;;;13.62;79.50;100187.75;1704725;82;21433;-64
2021/09/30 08:04:04;;;;;;;3.75;2.90;;;;;;;13.70;79.25;100183.89;1714389;81;21033;-64
2021/09/30 08:06:31;;;;;;;;;;;;;;;13.74;79.24;100184.09;1709818;81;21099;-64
2021/09/30 08:08:58;;;;;;;4.25;2.80;;;;;;;13.85;79.40;100188.31;1726913;81;20173;-64
2021/09/30 08:11:27;;;;;;;8.78;2.98;;;;;;;13.88;79.07;100190.77;1729343;81;21063;-64
2021/09/30 08:13:54;;;;;;;4.10;2.67;;;;;;;13.84;78.74;100191.88;1734016;81;21118;-64
2021/09/30 08:16:23;;;;;;;;;;;;;;;13.74;78.65;100194.59;1713072;82;21151;-63
2021/09/30 08:18:50;;;;;;;4.05;2.52;;;;;;;13.81;78.48;100194.67;1715302;82;21233;-64
2021/09/30 08:21:17;;;;;;;5.28;2.30;;;;;;;13.94;79.04;100200.09;1700638;82;21606;-64
2021/09/30 08:23:44;;;;;;;5.30;3.58;;;;;;;14.18;79.05;100205.81;1706582;81;21368;-64
2021/09/30 08:26:13;;;;;;;5.85;2.67;;;;;;;14.41;79.09;100205.38;1721311;82;21052;-64
2021/09/30 08:28:40;;;;;;;4.05;2.00;;;;;;;14.47;78.48;100208.14;1722211;81;21005;-64
2021/09/30 08:31:08;;;;;;;3.37;2.10;;;;;;;14.35;77.47;100210.98;1701902;82;21425;-64
2021/09/30 08:33:39;;;;;;;2.42;1.70;;;;;;;14.19;77.74;100218.00;1738443;81;21061;-64
2021/09/30 08:36:04;;;;;;;2.10;1.52;;;;;;;14.14;77.68;100214.77;1712379;82;22303;-64
2021/09/30 08:38:30;;;;;;;4.75;1.57;;;;;;;14.06;77.62;100226.55;1699697;81;25021;-64
2021/09/30 08:40:57;;;;;;;2.07;1.70;;;;;;;14.17;78.14;100227.73;1728543;81;21095;-64
2021/09/30 08:43:24;;;;;;;1.47;1.30;;;;;;;14.32;77.94;100237.42;1721915;82;21754;-64
2021/09/30 08:45:51;;;;;;;3.92;1.50;;;;;;;14.28;77.55;100237.19;1725383;80;21148;-64
2021/09/30 08:48:17;;;;;;;8.63;1.80;;;;;;;14.33;77.43;100239.10;1727575;81;21365;-64
2021/09/30 08:50:44;;;;;;;3.65;2.20;;;;;;;14.35;77.72;100242.50;1717420;82;22643;-64
2021/09/30 08:53:13;;;;;;;9.00;2.20;;;;;;;14.33;77.26;100245.67;1727065;81;22432;-64
2021/09/30 08:55:40;;;;;;;2.22;1.50;;;;;;;14.22;77.34;100233.59;1731565;81;22567;-64
2021/09/30 08:58:08;;;;;;;4.08;1.70;;;;;;;14.07;76.89;100230.86;1724558;81;22332;-64
2021/09/30 09:00:40;;;;;;;4.58;2.15;;;;;;;14.00;77.16;100229.52;1739865;80;21132;-64
2021/09/30 09:03:07;;;;;;;2.42;1.57;;;;;;;14.01;77.05;100235.60;1717473;81;22553;-64
2021/09/30 09:05:40;;;;;;;2.72;1.32;;;;;;;13.83;76.43;100239.56;1721837;81;26903;-64
2021/09/30 09:08:09;;;;;;;3.72;1.60;;;;;;;13.62;76.14;100237.60;1737621;82;21848;-63
2021/09/30 09:10:40;;;;;;;3.08;1.20;;;;;;;13.47;76.31;100235.78;1723987;81;21363;-64
2021/09/30 09:13:16;;;;;;;3.67;0.90;;;;;;;13.39;76.40;100237.47;1734671;81;21082;-63
2021/09/30 09:15:47;;;;;;;2.08;0.90;;;;;;;13.29;76.25;100232.77;1731069;81;22414;-64
2021/09/30 09:18:30;;;;;;;3.35;1.37;;;;;;;13.32;76.35;100233.92;1738923;81;22035;-64
2021/09/30 09:21:07;;;;;;;4.60;2.17;;;;;;;13.26;76.25;100234.23;1732270;80;22002;-64
2021/09/30 09:23:51;;;;;;;4.37;1.65;;;;;;;13.35;76.49;100244.25;1734456;81;21076;-64
2021/09/30 09:26:22;;;;;;;2.60;1.47;;;;;;;13.64;76.87;100248.88;1742742;81;20967;-64
2021/09/30 09:29:10;;;;;;;2.67;1.62;;;;;;;13.83;76.31;100258.41;1720371;82;21656;-64
2021/09/30 09:31:41;;;;;;;5.72;1.40;;;;;;;13.87;76.10;100256.02;1735102;81;21347;-65
2021/09/30 09:34:33;;;;;;;4.10;1.80;;;;;;;14.14;76.53;100256.78;1736476;82;21026;-64
2021/09/30 09:37:22;;;;;;;3.87;1.00;;;;;;;14.35;76.25;100260.89;1734040;81;21106;-64
2021/09/30 09:39:51;;;;;;;2.92;1.40;;;;;;;14.55;76.50;100260.67;1734861;82;22144;-65
2021/09/30 09:42:25;;;;;;;1.98;1.02;;;;;;;14.88;76.75;100258.42;1738334;82;22308;-64
2021/09/30 09:45:03;;;;;;;4.12;0.88;;;;;;;15.16;76.56;100263.42;1718754;82;20931;-64
2021/09/30 09:47:35;;;;;;;4.80;1.02;;;;;;;15.19;75.69;100265.88;1737848;81;21319;-64
2021/09/30 09:50:13;;;;;;;2.65;1.00;;;;;;;15.33;76.08;100263.28;1693222;81;20933;-64
2021/09/30 09:53:01;;;;;;;4.72;1.10;;;;;;;15.38;75.11;100261.71;1721510;82;20974;-64
2021/09/30 09:55:37;;;;;;;5.47;1.00;;;;;;;15.36;75.15;100257.84;1736598;81;21500;-64
2021/09/30 09:58:16;;;;;;;1.27;0.85;;;;;;;15.42;75.02;100257.95;1723536;81;21057;-64
2021/09/30 10:00:54;;;;;;;27.13;3.75;;;;;;;15.42;75.36;100262.73;1720461;82;21370;-64
2021/09/30 10:03:27;;;;;;;4.12;1.30;;;;;;;15.37;74.90;100264.78;1749528;80;20888;-64
2021/09/30 10:05:55;;;;;;;2.02;0.88;;;;;;;15.32;74.75;100266.86;1727242;80;21427;-64
2021/09/30 10:08:22;;;;;;;6.92;0.95;;;;;;;15.29;74.39;100270.99;1739941;81;21991;-64
2021/09/30 10:10:50;;;;;;;6.05;1.05;;;;;;;15.17;74.21;100266.42;1738577;81;21347;-64
2021/09/30 10:13:17;;;;;;;1.65;0.82;;;;;;;15.15;74.38;100274.86;1738754;81;21299;-64
2021/09/30 10:15:44;;;;;;;2.65;0.68;;;;;;;15.04;73.90;100261.03;1736843;82;21323;-64
2021/09/30 10:18:12;;;;;;;5.08;1.07;;;;;;;15.07;74.43;100262.61;1733258;82;20926;-64
2021/09/30 10:20:41;;;;;;;3.72;1.25;;;;;;;15.02;73.55;100260.73;1709540;81;22392;-64
2021/09/30 10:23:11;;;;;;;12.47;1.47;;;;;;;14.96;73.67;100258.83;1723691;81;20887;-63
2021/09/30 10:25:42;;;;;;;9.18;1.75;;;;;;;14.92;73.64;100258.61;1737934;81;20954;-64
2021/09/30 10:28:12;;;;;;;2.15;0.70;;;;;;;14.98;74.07;100253.03;1732345;82;21059;-64
2021/09/30 10:30:43;;;;;;;3.08;0.70;;;;;;;15.03;73.32;100259.80;1736237;81;21303;-64
2021/09/30 10:33:14;;;;;;;1.90;0.80;;;;;;;14.96;73.28;100261.46;1737422;82;21096;-64
2021/09/30 10:35:53;;;;;;;6.42;0.95;;;;;;;14.92;73.11;100266.50;1765619;80;20980;-64
2021/09/30 10:38:29;;;;;;;7.85;1.20;;;;;;;14.77;72.68;100281.36;1731924;81;22042;-64
2021/09/30 10:41:10;;;;;;;5.78;1.00;;;;;;;14.67;73.15;100274.06;1726769;80;21000;-63
2021/09/30 10:43:44;;;;;;;11.45;1.27;;;;;;;14.55;72.69;100279.06;1735209;81;21390;-64
2021/09/30 10:46:36;;;;;;;12.28;1.45;;;;;;;14.69;72.92;100274.84;1715057;82;21340;-63
2021/09/30 10:49:26;;;;;;;5.42;1.22;;;;;;;14.66;72.39;100278.95;1732700;81;21329;-64
2021/09/30 10:52:12;;;;;;;2.22;0.90;;;;;;;14.75;72.56;100278.44;1728620;80;20955;-63
2021/09/30 10:54:41;;;;;;;4.35;0.90;;;;;;;14.94;72.96;100272.52;1684003;83;21697;-64
2021/09/30 10:57:45;;;;;;;4.97;1.00;;;;;;;15.16;72.40;100273.94;1695906;82;21132;-64
2021/09/30 11:00:34;;;;;;;4.90;0.88;;;;;;;15.34;72.57;100269.39;1695801;82;22389;-63
2021/09/30 11:03:09;;;;;;;4.17;1.30;;;;;;;15.52;71.50;100270.11;1695346;82;21041;-64
2021/09/30 11:05:41;;;;;;;11.48;1.98;;;;;;;15.67;71.80;100274.45;1738094;81;21138;-64
2021/09/30 11:08:29;;;;;;;3.17;0.75;;;;;;;15.70;71.27;100279.56;1750800;81;21005;-64
2021/09/30 11:11:08;;;;;;;3.92;1.15;;;;;;;15.72;71.42;100277.70;1741287;80;21103;-64
2021/09/30 11:13:59;;;;;;;3.67;0.70;;;;;;;15.62;71.22;100282.61;1740116;81;21306;-64
2021/09/30 11:16:39;;;;;;;2.67;0.80;;;;;;;15.43;70.91;100293.39;1729871;81;21059;-64
2021/09/30 11:19:06;;;;;;;5.35;1.20;;;;;;;15.24;70.98;100288.82;1711539;81;21372;-64
2021/09/30 11:21:38;;;;;;;6.80;1.12;;;;;;;15.00;70.87;100289.27;1713521;81;21524;-63
2021/09/30 11:24:12;;;;;;;2.87;0.80;;;;;;;15.05;71.18;100286.86;1721577;81;21041;-64
2021/09/30 11:26:56;;;;;;;2.02;0.75;;;;;;;15.18;71.26;100285.23;1714182;82;21070;-64
2021/09/30 11:29:26;;;;;;;3.00;0.90;;;;;;;15.25;71.04;100296.23;1711490;81;20952;-64
2021/09/30 11:32:02;;;;;;;1.57;0.78;;;;;;;15.28;70.69;100296.90;1745819;80;21031;-63
2021/09/30 11:34:33;;;;;;;16.65;1.90;;;;;;;15.25;70.64;100286.56;1731707;80;21950;-64
2021/09/30 11:37:15;;;;;;;11.12;2.15;;;;;;;15.21;70.63;100290.31;1715384;80;21100;-64
2021/09/30 11:39:45;;;;;;;12.10;1.35;;;;;;;15.27;70.67;100295.22;1733779;80;21243;-64
2021/09/30 11:42:12;;;;;;;30.88;2.85;;;;;;;15.38;70.67;100300.70;1732501;80;21533;-64
2021/09/30 11:44:38;;;;;;;7.30;1.47;;;;;;;15.35;70.31;100294.78;1736562;80;21089;-64
2021/09/30 11:47:05;;;;;;;11.93;2.20;;;;;;;15.24;69.71;100310.34;1715470;80;21144;-64
2021/09/30 11:49:41;;;;;;;18.20;1.57;;;;;;;15.07;69.69;100304.25;1736596;80;21563;-63
2021/09/30 11:52:13;;;;;;;4.10;1.12;;;;;;;14.93;69.67;100308.97;1788784;78;21860;-63
2021/09/30 11:54:40;;;;;;;22.82;2.05;;;;;;;14.81;69.33;100316.20;1781020;78;21118;-64
2021/09/30 11:57:06;;;;;;;6.97;0.87;;;;;;;14.72;69.42;100317.56;1784048;78;21436;-64
2021/09/30 11:59:33;;;;;;;7.30;0.77;;;;;;;14.60;69.15;100299.01;1779520;79;21710;-64
2021/09/30 12:02:05;;;;;;;8.43;1.45;;;;;;;14.73;69.37;100326.29;1785928;78;21440;-64
2021/09/30 12:04:51;;;;;;;3.40;0.70;;;;;;;14.82;69.22;100324.49;1767867;79;21136;-64
2021/09/30 12:07:21;;;;;;;4.67;1.03;;;;;;;14.85;68.83;100328.27;1774528;78;21583;-64
2021/09/30 12:09:54;;;;;;;4.78;1.35;;;;;;;14.92;69.09;100326.97;1745179;81;21658;-64
2021/09/30 12:12:33;;;;;;;6.45;1.72;;;;;;;14.98;69.08;100329.28;1717347;82;21989;-64
2021/09/30 12:15:00;;;;;;;5.97;1.00;;;;;;;15.09;68.86;100327.81;1723796;81;21081;-64
2021/09/30 12:17:34;;;;;;;1.72;0.60;;;;;;;15.00;68.39;100330.03;1721152;80;21734;-64
2021/09/30 12:20:02;;;;;;;3.62;0.70;;;;;;;14.98;68.26;100331.92;1737426;80;21108;-64
2021/09/30 12:22:53;;;;;;;19.05;3.15;;;;;;;15.01;68.35;100330.87;1727649;80;21678;-64
2021/09/30 12:25:27;;;;;;;1.70;0.82;;;;;;;15.24;68.87;100330.91;1728545;81;22002;-64
2021/09/30 12:27:57;;;;;;;20.05;3.98;;;;;;;15.55;68.49;100327.83;1725844;81;20991;-64
2021/09/30 12:30:28;;;;;;;8.38;1.30;;;;;;;15.65;68.12;100328.97;1736642;81;21112;-63
2021/09/30 12:33:02;;;;;;;6.40;1.35;;;;;;;15.58;67.87;100327.65;1734648;81;20957;-64
2021/09/30 12:35:36;;;;;;;3.62;0.90;;;;;;;15.49;67.84;100325.53;1734080;81;20962;-64
2021/09/30 12:38:07;;;;;;;11.88;2.08;;;;;;;15.45;67.43;100328.81;1728722;81;20989;-64
2021/09/30 12:40:42;;;;;;;6.05;0.78;;;;;;;15.33;67.46;100329.06;1734564;81;21391;-63
2021/09/30 12:43:18;;;;;;;3.37;0.93;;;;;;;15.24;67.47;100325.65;1734953;81;21578;-64
2021/09/30 12:45:59;;;;;;;7.35;0.65;;;;;;;15.21;67.56;100331.09;1731738;81;21306;-64
2021/09/30 12:48:32;;;;;;;9.13;1.95;;;;;;;15.18;67.37;100331.27;1736014;81;22140;-65
2021/09/30 12:51:14;;;;;;;0.88;0.50;;;;;;;15.15;67.35;100326.15;1735434;81;20942;-65
2021/09/30 12:53:48;;;;;;;2.87;0.60;;;;;;;15.09;67.08;100335.70;1733108;80;22078;-65
2021/09/30 12:56:21;;;;;;;5.20;0.80;;;;;;;15.03;66.95;100343.95;1735556;80;22409;-65
2021/09/30 12:58:51;;;;;;;7.33;0.80;;;;;;;14.98;66.96;100337.17;1731745;81;20912;-65
2021/09/30 13:01:33;;;;;;;111.92;17.27;;;;;;;14.91;66.79;100338.91;1730235;81;20974;-64
2021/09/30 13:04:14;;;;;;;8.85;1.65;;;;;;;14.84;66.52;100334.44;1730923;82;20989;-65
2021/09/30 13:06:55;;;;;;;4.22;0.90;;;;;;;14.83;66.95;100338.48;1725697;81;20978;-64
2021/09/30 13:09:31;;;;;;;3.00;1.00;;;;;;;14.80;66.65;100340.81;1736631;81;22428;-64
2021/09/30 13:12:12;;;;;;;4.87;0.70;;;;;;;14.78;66.52;100338.25;1722405;81;21470;-64
2021/09/30 13:14:51;;;;;;;2.92;0.62;;;;;;;14.79;66.32;100343.06;1710705;81;20970;-64
2021/09/30 13:17:26;;;;;;;3.35;1.32;;;;;;;14.77;66.34;100347.55;1732636;81;20941;-64
2021/09/30 13:20:06;;;;;;;3.05;0.80;;;;;;;14.71;66.28;100346.58;1695655;82;21396;-64
2021/09/30 13:22:37;;;;;;;25.48;2.02;;;;;;;14.70;66.13;100351.43;1726736;81;22089;-64
2021/09/30 13:25:19;;;;;;;41.00;5.08;;;;;;;14.59;66.14;100352.48;1726442;81;20926;-64
2021/09/30 13:27:50;;;;;;;6.53;1.07;;;;;;;14.57;66.08;100353.05;1724411;81;21369;-64
2021/09/30 13:30:21;;;;;;;2.85;0.85;;;;;;;14.55;65.65;100350.02;1721612;81;22128;-64
2021/09/30 13:32:49;;;;;;;2.52;0.75;;;;;;;14.54;65.76;100346.17;1718020;82;20974;-64
2021/09/30 13:35:17;;;;;;;23.38;1.80;;;;;;;14.52;65.53;100352.81;1722692;81;21650;-64
2021/09/30 13:37:45;;;;;;;5.22;0.93;;;;;;;14.48;65.51;100347.77;1709406;80;20990;-64
2021/09/30 13:40:12;;;;;;;5.17;1.32;;;;;;;14.48;65.66;100348.64;1731838;80;21389;-64
2021/09/30 13:42:39;;;;;;;;;;;;;;;14.37;65.26;100348.36;1746459;81;21473;-64
2021/09/30 13:45:08;;;;;;;;;;;;;;;14.27;65.26;100349.77;1743732;81;20425;-64
2021/09/30 13:47:35;;;;;;;6.92;0.80;;;;;;;14.18;65.15;100351.56;1738021;81;22371;-64
2021/09/30 13:50:04;;;;;;;12.37;2.02;;;;;;;14.17;65.44;100351.16;1742257;81;21789;-64
2021/09/30 13:52:31;;;;;;;5.35;0.72;;;;;;;14.14;65.31;100340.81;1744803;81;21677;-64
2021/09/30 13:54:58;;;;;;;8.83;1.72;;;;;;;14.13;65.31;100345.70;1744868;81;21036;-64
2021/09/30 13:57:25;;;;;;;6.62;1.00;;;;;;;14.13;65.02;100344.39;1745022;81;21010;-64
2021/09/30 13:59:51;;;;;;;7.42;1.40;;;;;;;14.12;65.04;100343.55;1744750;81;21058;-64
2021/09/30 14:02:18;;;;;;;2.57;1.03;;;;;;;14.05;64.95;100348.25;1743333;80;22496;-64
2021/09/30 14:04:45;;;;;;;15.10;1.00;;;;;;;14.01;65.09;100349.34;1745591;81;24872;-64
2021/09/30 14:07:12;;;;;;;10.77;1.30;;;;;;;14.03;65.14;100350.13;1742789;81;21061;-64
2021/09/30 14:09:38;;;;;;;2.53;0.87;;;;;;;14.07;65.12;100352.96;1743968;81;21013;-64
2021/09/30 14:12:07;;;;;;;2.50;0.95;;;;;;;14.13;65.06;100357.52;1739605;81;21986;-64
2021/09/30 14:14:34;;;;;;;3.47;0.80;;;;;;;14.14;64.79;100352.63;1738888;81;20926;-64
2021/09/30 14:17:01;;;;;;;3.02;0.70;;;;;;;14.16;64.99;100346.84;1744380;81;20985;-64
2021/09/30 14:19:28;;;;;;;19.42;1.40;;;;;;;14.18;64.91;100358.13;1746170;81;21421;-64
2021/09/30 14:21:56;;;;;;;19.23;1.77;;;;;;;14.17;64.86;100352.47;1734911;81;20905;-64
2021/09/30 14:24:24;;;;;;;6.30;1.10;;;;;;;14.15;64.69;100354.36;1713085;81;21503;-64
2021/09/30 14:26:51;;;;;;;4.90;1.20;;;;;;;14.06;64.62;100357.84;1734382;81;21346;-63
2021/09/30 14:29:17;;;;;;;2.80;1.07;;;;;;;13.96;64.55;100353.98;1746693;81;22232;-64
2021/09/30 14:31:44;;;;;;;23.18;2.70;;;;;;;13.91;64.61;100353.36;1744508;81;21307;-64
2021/09/30 14:34:11;;;;;;;10.53;1.55;;;;;;;13.88;64.70;100356.14;1746258;81;21366;-64
2021/09/30 14:36:38;;;;;;;16.90;1.50;;;;;;;13.88;64.57;100361.39;1746712;81;21040;-64